createdAt,value
2022-10-10T00:01:55.510Z,10.00
2022-10-10T00:04:24.704Z,10.05
2022-10-10T00:06:53.836Z,9.85
2022-10-10T00:09:23.040Z,10.00
2022-10-10T00:11:52.175Z,10.11
2022-10-10T00:14:22.757Z,10.03
2022-10-10T00:16:52.106Z,10.08
2022-10-10T00:19:21.273Z,9.92
2022-10-10T00:21:50.398Z,9.90
2022-10-10T00:24:19.540Z,9.98
2022-10-10T00:26:49.955Z,9.95
2022-10-10T00:29:19.151Z,9.93
2022-10-10T00:31:49.717Z,9.78
2022-10-10T00:34:18.937Z,9.87
2022-10-10T00:36:48.078Z,9.88
2022-10-10T00:39:17.490Z,9.83
2022-10-10T00:41:46.680Z,9.83
2022-10-10T00:44:17.642Z,9.75
2022-10-10T00:46:48.174Z,9.74
2022-10-10T00:49:20.827Z,9.74
2022-10-10T00:51:56.418Z,9.74
2022-10-10T00:54:27.240Z,9.65
2022-10-10T00:57:01.993Z,9.69
2022-10-10T00:59:35.202Z,9.60
2022-10-10T01:02:06.900Z,9.58
2022-10-10T01:04:45.037Z,9.67
2022-10-10T01:07:19.056Z,9.62
2022-10-10T01:09:51.611Z,9.65
2022-10-10T01:12:28.121Z,9.65
2022-10-10T01:15:07.882Z,9.63
2022-10-10T01:17:46.731Z,9.64
2022-10-10T01:20:51.277Z,9.53
2022-10-10T01:24:12.506Z,9.61
2022-10-10T01:27:17.624Z,9.57
2022-10-10T01:29:53.496Z,9.47
2022-10-10T01:32:31.308Z,9.48
2022-10-10T01:35:29.733Z,9.51
2022-10-10T01:38:13.184Z,9.54
2022-10-10T01:40:51.060Z,9.49
2022-10-10T01:43:20.626Z,9.53
2022-10-10T01:45:54.039Z,9.42
2022-10-10T01:48:30.148Z,9.61
2022-10-10T01:51:32.121Z,9.63
2022-10-10T01:54:18.003Z,9.68
2022-10-10T01:57:01.207Z,9.70
2022-10-10T01:59:42.462Z,9.70
2022-10-10T02:02:21.691Z,9.60
2022-10-10T02:04:58.068Z,9.58
2022-10-10T02:07:34.600Z,9.64
2022-10-10T02:10:07.774Z,9.60
2022-10-10T02:12:38.525Z,9.63
2022-10-10T02:15:14.642Z,9.57
2022-10-10T02:17:49.938Z,9.52
2022-10-10T02:20:24.669Z,9.57
2022-10-10T02:22:56.464Z,9.44
2022-10-10T02:25:30.201Z,9.57
2022-10-10T02:28:09.274Z,9.59
2022-10-10T02:30:44.345Z,9.47
2022-10-10T02:33:20.612Z,9.51
2022-10-10T02:35:52.318Z,9.59
2022-10-10T02:38:21.768Z,9.68
2022-10-10T02:40:51.446Z,9.57
2022-10-10T02:43:21.437Z,9.73
2022-10-10T02:45:50.934Z,9.63
2022-10-10T02:48:21.459Z,9.71
2022-10-10T02:50:50.611Z,9.67
2022-10-10T02:53:19.848Z,9.59
2022-10-10T02:55:48.890Z,9.66
2022-10-10T02:58:18.290Z,9.69
2022-10-10T03:00:47.371Z,9.63
2022-10-10T03:03:16.528Z,9.30
2022-10-10T03:05:47.155Z,9.61
2022-10-10T03:08:16.298Z,9.65
2022-10-10T03:10:58.400Z,9.69
2022-10-10T03:13:27.799Z,9.71
2022-10-10T03:15:57.011Z,9.77
2022-10-10T03:18:26.196Z,9.77
2022-10-10T03:20:57.856Z,9.68
2022-10-10T03:23:27.563Z,9.68
2022-10-10T03:25:56.693Z,9.86
2022-10-10T03:28:25.874Z,9.95
2022-10-10T03:30:55.206Z,9.86
2022-10-10T03:33:24.442Z,9.93
2022-10-10T03:35:53.592Z,10.07
2022-10-10T03:38:24.139Z,10.06
2022-10-10T03:40:53.509Z,10.03
2022-10-10T03:43:22.622Z,10.01
2022-10-10T03:45:51.870Z,9.99
2022-10-10T03:48:21.049Z,9.94
2022-10-10T03:50:50.168Z,9.92
2022-10-10T03:53:19.596Z,9.98
2022-10-10T03:55:50.146Z,9.94
2022-10-10T03:58:23.634Z,9.84
2022-10-10T04:00:57.227Z,9.72
2022-10-10T04:03:27.036Z,9.75
2022-10-10T04:05:56.794Z,9.89
2022-10-10T04:08:26.113Z,9.87
2022-10-10T04:10:56.953Z,9.85
2022-10-10T04:13:27.621Z,9.80
2022-10-10T04:15:57.823Z,9.83
2022-10-10T04:18:27.233Z,9.70
2022-10-10T04:20:56.513Z,9.76
2022-10-10T04:23:25.644Z,9.75
2022-10-10T04:25:56.246Z,9.77
2022-10-10T04:28:25.612Z,9.75
2022-10-10T04:30:56.348Z,9.74
2022-10-10T04:33:25.740Z,9.74
2022-10-10T04:35:54.837Z,9.64
2022-10-10T04:38:24.010Z,9.67
2022-10-10T04:40:53.867Z,9.73
2022-10-10T04:43:24.359Z,9.82
2022-10-10T04:45:53.499Z,9.77
2022-10-10T04:48:22.593Z,9.80
2022-10-10T04:50:54.013Z,9.70
2022-10-10T04:53:23.827Z,9.68
2022-10-10T04:55:53.258Z,9.77
2022-10-10T04:58:23.875Z,9.65
2022-10-10T05:00:53.992Z,9.72
2022-10-10T05:03:24.624Z,9.69
2022-10-10T05:05:54.306Z,9.70
2022-10-10T05:08:23.729Z,9.67
2022-10-10T05:10:54.788Z,9.67
2022-10-10T05:13:25.336Z,9.68
2022-10-10T05:15:54.604Z,9.63
2022-10-10T05:18:23.705Z,9.55
2022-10-10T05:20:52.857Z,9.66
2022-10-10T05:23:21.986Z,9.69
2022-10-10T05:25:52.302Z,9.64
2022-10-10T05:28:21.579Z,9.65
2022-10-10T05:30:54.032Z,9.59
2022-10-10T05:33:23.296Z,9.61
2022-10-10T05:35:52.424Z,9.58
2022-10-10T05:38:21.511Z,9.46
2022-10-10T05:40:50.616Z,9.57
2022-10-10T05:43:19.779Z,9.61
2022-10-10T05:45:48.982Z,9.47
2022-10-10T05:48:19.935Z,9.26
2022-10-10T05:50:52.262Z,9.58
2022-10-10T05:53:22.757Z,9.56
2022-10-10T05:55:52.278Z,9.61
2022-10-10T05:58:21.453Z,9.53
2022-10-10T06:00:50.898Z,9.52
2022-10-10T06:03:21.612Z,9.29
2022-10-10T06:05:53.425Z,9.37
2022-10-10T06:08:22.549Z,9.45
2022-10-10T06:10:51.737Z,9.44
2022-10-10T06:13:24.535Z,9.43
2022-10-10T06:15:55.144Z,9.35
2022-10-10T06:18:25.720Z,9.29
2022-10-10T06:20:54.866Z,9.39
2022-10-10T06:23:23.998Z,9.33
2022-10-10T06:25:54.271Z,9.36
2022-10-10T06:28:24.144Z,9.32
2022-10-10T06:30:53.744Z,8.92
2022-10-10T06:33:24.386Z,9.33
2022-10-10T06:35:53.606Z,9.26
2022-10-10T06:38:22.771Z,9.33
2022-10-10T06:40:52.098Z,9.25
2022-10-10T06:43:21.265Z,9.36
2022-10-10T06:45:52.829Z,9.34
2022-10-10T06:48:21.961Z,9.31
2022-10-10T06:51:00.576Z,9.30
2022-10-10T06:53:30.112Z,9.36
2022-10-10T06:56:00.241Z,9.30
2022-10-10T06:58:31.074Z,9.23
2022-10-10T07:01:02.539Z,9.31
2022-10-10T07:03:32.847Z,9.18
2022-10-10T07:06:04.765Z,9.42
2022-10-10T07:08:34.710Z,9.48
2022-10-10T07:11:03.987Z,9.49
2022-10-10T07:13:33.340Z,9.45
2022-10-10T07:16:02.998Z,9.54
2022-10-10T07:18:32.704Z,9.55
2022-10-10T07:21:03.892Z,9.54
2022-10-10T07:23:33.069Z,9.66
2022-10-10T07:26:04.537Z,9.45
2022-10-10T07:28:34.161Z,9.66
2022-10-10T07:31:06.044Z,9.70
2022-10-10T07:33:37.793Z,9.72
2022-10-10T07:36:09.168Z,9.81
2022-10-10T07:38:38.978Z,9.84
2022-10-10T07:41:09.575Z,9.82
2022-10-10T07:43:38.800Z,9.89
2022-10-10T07:46:15.918Z,9.88
2022-10-10T07:48:45.162Z,9.81
2022-10-10T07:51:16.185Z,9.81
2022-10-10T07:53:45.400Z,10.00
2022-10-10T07:56:14.494Z,10.07
2022-10-10T07:58:43.585Z,9.97
2022-10-10T08:01:14.626Z,10.07
2022-10-10T08:03:44.396Z,10.13
2022-10-10T08:06:17.536Z,10.24
2022-10-10T08:08:51.646Z,10.28
2022-10-10T08:11:23.004Z,10.33
2022-10-10T08:13:52.804Z,10.30
2022-10-10T08:16:22.149Z,10.40
2022-10-10T08:18:51.559Z,10.55
2022-10-10T08:21:22.399Z,10.80
2022-10-10T08:23:51.593Z,11.12
2022-10-10T08:26:21.078Z,11.55
2022-10-10T08:28:50.295Z,11.92
2022-10-10T08:31:21.542Z,12.23
2022-10-10T08:33:52.460Z,12.54
2022-10-10T08:36:25.664Z,12.75
2022-10-10T08:38:59.401Z,13.01
2022-10-10T08:41:41.416Z,13.20
2022-10-10T08:44:21.243Z,13.61
2022-10-10T08:46:54.947Z,13.77
2022-10-10T08:49:32.394Z,13.95
2022-10-10T08:52:08.341Z,14.44
2022-10-10T08:54:39.250Z,14.73
2022-10-10T08:57:22.391Z,14.75
2022-10-10T08:59:55.989Z,15.00
2022-10-10T09:02:53.246Z,14.99
2022-10-10T09:05:35.853Z,15.10
2022-10-10T09:08:30.056Z,15.21
2022-10-10T09:11:07.178Z,15.29
2022-10-10T09:13:40.857Z,15.36
2022-10-10T09:16:22.959Z,15.70
2022-10-10T09:19:03.125Z,15.85
2022-10-10T09:21:37.055Z,15.84
2022-10-10T09:24:17.601Z,15.79
2022-10-10T09:26:52.650Z,15.73
2022-10-10T09:29:32.706Z,15.57
2022-10-10T09:32:10.675Z,15.29
2022-10-10T09:34:44.449Z,14.86
2022-10-10T09:37:29.454Z,14.64
2022-10-10T09:40:21.451Z,14.10
2022-10-10T09:42:51.008Z,14.15
2022-10-10T09:45:23.255Z,14.00
2022-10-10T09:47:56.955Z,14.18
2022-10-10T09:50:26.585Z,14.20
2022-10-10T09:52:57.616Z,14.36
2022-10-10T09:55:34.763Z,14.34
2022-10-10T09:58:25.305Z,14.47
2022-10-10T10:00:54.874Z,14.46
2022-10-10T10:03:25.051Z,14.79
2022-10-10T10:06:01.051Z,14.96
2022-10-10T10:08:33.440Z,15.64
2022-10-10T10:11:04.956Z,16.15
2022-10-10T10:13:37.417Z,16.69
2022-10-10T10:16:10.377Z,17.14
2022-10-10T10:18:42.780Z,17.50
2022-10-10T10:21:20.499Z,17.78
2022-10-10T10:23:59.777Z,18.20
2022-10-10T10:26:44.844Z,18.31
2022-10-10T10:29:30.640Z,17.97
2022-10-10T10:32:15.481Z,17.69
2022-10-10T10:35:03.582Z,17.50
2022-10-10T10:37:44.904Z,17.26
2022-10-10T10:40:32.593Z,17.33
2022-10-10T10:43:49.804Z,17.72
2022-10-10T10:46:37.747Z,18.21
2022-10-10T10:49:17.301Z,18.84
2022-10-10T10:52:19.324Z,19.29
2022-10-10T10:55:39.061Z,19.64
2022-10-10T11:01:55.921Z,20.54
2022-10-10T11:05:17.600Z,20.97
2022-10-10T11:08:03.691Z,20.68
2022-10-10T11:10:41.122Z,20.33
2022-10-10T11:13:19.971Z,21.11
2022-10-10T11:16:24.311Z,20.79
2022-10-10T11:18:55.533Z,20.78
2022-10-10T11:21:28.125Z,20.97
2022-10-10T11:24:04.014Z,20.79
2022-10-10T11:26:39.224Z,20.82
2022-10-10T11:29:16.975Z,21.19
2022-10-10T11:31:59.005Z,21.05
2022-10-10T11:34:34.040Z,21.27
2022-10-10T11:37:13.122Z,21.19
2022-10-10T11:39:52.643Z,21.35
2022-10-10T11:42:25.901Z,20.95
2022-10-10T11:45:02.878Z,20.99
2022-10-10T11:47:39.061Z,20.80
2022-10-10T11:50:18.297Z,20.79
2022-10-10T11:52:58.051Z,21.04
2022-10-10T11:55:37.938Z,20.98
2022-10-10T11:58:34.845Z,20.57
2022-10-10T12:01:16.465Z,19.76
2022-10-10T12:03:47.079Z,19.54
2022-10-10T12:06:26.788Z,18.69
2022-10-10T12:09:03.330Z,18.57
2022-10-10T12:11:38.142Z,18.45
2022-10-10T12:14:13.696Z,18.31
2022-10-10T12:16:43.149Z,18.17
2022-10-10T12:19:20.288Z,17.82
2022-10-10T12:22:01.828Z,18.35
2022-10-10T12:24:34.569Z,18.94
2022-10-10T12:27:42.465Z,19.63
2022-10-10T12:30:26.404Z,19.88
2022-10-10T12:32:56.106Z,20.25
2022-10-10T12:35:42.626Z,20.39
2022-10-10T12:38:23.017Z,20.78
2022-10-10T12:41:16.005Z,20.80
2022-10-10T12:43:52.482Z,20.10
2022-10-10T12:46:32.994Z,19.84
2022-10-10T12:49:19.220Z,19.64
2022-10-10T12:52:03.561Z,19.46
2022-10-10T12:54:40.301Z,19.46
2022-10-10T12:57:20.989Z,19.28
2022-10-10T12:59:50.404Z,19.42
2022-10-10T13:02:25.319Z,19.60
2022-10-10T13:05:00.479Z,19.51
2022-10-10T13:07:31.787Z,19.04
2022-10-10T13:10:11.576Z,18.86
2022-10-10T13:12:40.793Z,19.23
2022-10-10T13:15:21.230Z,18.94
2022-10-10T13:17:50.635Z,18.60
2022-10-10T13:20:32.955Z,18.11
2022-10-10T13:23:06.544Z,17.61
2022-10-10T13:25:39.129Z,17.70
2022-10-10T13:28:19.264Z,17.86
2022-10-10T13:30:49.836Z,17.91
2022-10-10T13:33:22.401Z,18.30
2022-10-10T13:35:51.958Z,19.02
2022-10-10T13:38:27.007Z,19.66
2022-10-10T13:40:56.599Z,20.35
2022-10-10T13:43:26.456Z,20.68
2022-10-10T13:46:00.597Z,21.04
2022-10-10T13:48:40.975Z,21.30
2022-10-10T13:51:12.650Z,21.22
2022-10-10T13:53:53.259Z,20.83
2022-10-10T13:56:28.265Z,20.73
2022-10-10T13:59:06.522Z,21.12
2022-10-10T14:01:39.969Z,20.99
2022-10-10T14:04:21.472Z,20.34
2022-10-10T14:07:00.206Z,19.71
2022-10-10T14:09:37.231Z,18.94
2022-10-10T14:12:09.637Z,18.72
2022-10-10T14:14:47.787Z,18.81
2022-10-10T14:17:17.971Z,18.98
2022-10-10T14:19:49.592Z,19.07
2022-10-10T14:22:19.164Z,18.84
2022-10-10T14:24:50.309Z,19.07
2022-10-10T14:27:27.976Z,19.41
2022-10-10T14:29:59.269Z,19.87
2022-10-10T14:32:28.608Z,20.02
2022-10-10T14:34:57.953Z,20.19
2022-10-10T14:37:30.861Z,20.06
2022-10-10T14:40:01.389Z,20.15
2022-10-10T14:42:30.662Z,20.18
2022-10-10T14:44:59.796Z,20.35
2022-10-10T14:47:28.927Z,20.70
2022-10-10T14:49:58.989Z,20.77
2022-10-10T14:52:28.102Z,20.72
2022-10-10T14:54:57.261Z,20.80
2022-10-10T14:57:27.933Z,20.71
2022-10-10T14:59:57.101Z,20.84
2022-10-10T15:02:26.646Z,20.41
2022-10-10T15:04:56.097Z,19.75
2022-10-10T15:07:25.268Z,19.88
2022-10-10T15:10:27.847Z,19.94
2022-10-10T15:12:46.403Z,20.05
2022-10-10T15:15:16.385Z,20.21
2022-10-10T15:17:45.785Z,20.34
2022-10-10T15:20:15.116Z,20.30
2022-10-10T15:22:46.141Z,20.40
2022-10-10T15:25:15.337Z,20.16
2022-10-10T15:27:45.896Z,20.07
2022-10-10T15:30:15.482Z,19.72
2022-10-10T15:32:44.670Z,19.95
2022-10-10T15:35:16.901Z,19.70
2022-10-10T15:37:47.510Z,19.59
2022-10-10T15:40:19.824Z,19.10
2022-10-10T15:42:51.083Z,18.81
2022-10-10T15:45:44.100Z,18.72
2022-10-10T15:48:10.579Z,18.39
2022-10-10T15:50:43.862Z,18.12
2022-10-10T15:53:13.611Z,17.76
2022-10-10T15:55:44.232Z,17.58
2022-10-10T15:58:16.001Z,17.37
2022-10-10T16:00:45.930Z,17.12
2022-10-10T16:03:15.594Z,16.98
2022-10-10T16:05:44.997Z,16.64
2022-10-10T16:08:14.224Z,17.00
2022-10-10T16:10:45.024Z,16.89
2022-10-10T16:13:15.817Z,16.74
2022-10-10T16:15:45.111Z,16.69
2022-10-10T16:18:14.246Z,16.49
2022-10-10T16:20:44.299Z,16.55
2022-10-10T16:23:13.532Z,16.40
2022-10-10T16:25:42.703Z,16.43
2022-10-10T16:28:12.006Z,16.33
2022-10-10T16:30:42.576Z,16.30
2022-10-10T16:33:11.885Z,16.39
2022-10-10T16:35:41.037Z,16.44
2022-10-10T16:38:10.188Z,16.37
2022-10-10T16:40:39.969Z,16.37
2022-10-10T16:43:09.321Z,16.32
2022-10-10T16:45:44.587Z,16.24
2022-10-10T16:48:14.215Z,16.07
2022-10-10T16:50:44.076Z,15.92
2022-10-10T16:53:13.213Z,15.90
2022-10-10T16:55:43.256Z,15.73
2022-10-10T16:58:12.428Z,15.89
2022-10-10T17:00:44.909Z,15.80
2022-10-10T17:03:14.165Z,15.74
2022-10-10T17:05:44.795Z,15.55
2022-10-10T17:08:14.365Z,15.65
2022-10-10T17:10:45.203Z,15.63
2022-10-10T17:13:14.581Z,15.64
2022-10-10T17:15:45.134Z,15.55
2022-10-10T17:18:14.313Z,15.50
2022-10-10T17:20:43.492Z,15.45
2022-10-10T17:23:12.779Z,15.39
2022-10-10T17:25:43.306Z,15.30
2022-10-10T17:28:13.247Z,15.15
2022-10-10T17:30:46.284Z,15.09
2022-10-10T17:33:17.707Z,15.12
2022-10-10T17:35:50.565Z,14.99
2022-10-10T17:38:38.476Z,14.97
2022-10-10T17:41:10.231Z,14.92
2022-10-10T17:43:39.730Z,14.96
2022-10-10T17:46:33.642Z,14.89
2022-10-10T17:49:05.013Z,14.90
2022-10-10T17:51:35.040Z,14.86
2022-10-10T17:54:06.610Z,14.72
2022-10-10T17:56:36.385Z,14.69
2022-10-10T17:59:06.892Z,14.65
2022-10-10T18:01:38.593Z,14.54
2022-10-10T18:04:08.098Z,14.47
2022-10-10T18:06:38.949Z,14.32
2022-10-10T18:09:08.631Z,14.21
2022-10-10T18:11:37.880Z,14.32
2022-10-10T18:14:07.135Z,14.21
2022-10-10T18:16:38.193Z,14.17
2022-10-10T18:19:09.077Z,14.16
2022-10-10T18:21:38.271Z,14.15
2022-10-10T18:24:08.332Z,14.09
2022-10-10T18:26:37.545Z,13.95
2022-10-10T18:29:06.669Z,13.93
2022-10-10T18:31:39.149Z,13.91
2022-10-10T18:34:09.050Z,13.81
2022-10-10T18:36:42.399Z,13.78
2022-10-10T18:39:16.657Z,13.80
2022-10-10T18:41:46.299Z,13.78
2022-10-10T18:44:17.942Z,13.68
2022-10-10T18:46:50.384Z,13.70
2022-10-10T18:49:19.644Z,13.63
2022-10-10T18:51:49.083Z,13.50
2022-10-10T18:54:20.209Z,13.54
2022-10-10T18:56:49.739Z,13.52
2022-10-10T18:59:22.329Z,13.42
2022-10-10T19:01:53.063Z,13.39
2022-10-10T19:04:22.855Z,13.27
2022-10-10T19:06:57.067Z,13.20
2022-10-10T19:09:27.252Z,13.25
2022-10-10T19:11:56.528Z,13.30
2022-10-10T19:14:25.745Z,13.30
2022-10-10T19:16:56.445Z,13.22
2022-10-10T19:19:25.845Z,13.33
2022-10-10T19:21:55.099Z,13.18
2022-10-10T19:24:24.477Z,13.26
2022-10-10T19:26:57.131Z,13.28
2022-10-10T19:29:27.194Z,13.26
2022-10-10T19:31:57.914Z,13.20
2022-10-10T19:34:27.155Z,13.29
2022-10-10T19:36:56.708Z,13.27
2022-10-10T19:39:25.906Z,13.28
2022-10-10T19:41:55.199Z,13.28
2022-10-10T19:44:24.577Z,13.26
2022-10-10T19:46:57.090Z,13.21
2022-10-10T19:49:26.665Z,13.15
2022-10-10T19:51:55.816Z,13.12
2022-10-10T19:54:25.004Z,13.21
2022-10-10T19:56:54.193Z,13.12
2022-10-10T19:59:23.547Z,13.14
2022-10-10T20:01:53.023Z,13.13
2022-10-10T20:04:23.775Z,13.06
2022-10-10T20:06:53.420Z,13.10
2022-10-10T20:09:24.540Z,13.07
2022-10-10T20:11:53.944Z,13.01
2022-10-10T20:14:23.290Z,12.85
2022-10-10T20:16:52.735Z,12.98
2022-10-10T20:19:23.782Z,12.96
2022-10-10T20:21:53.468Z,12.93
2022-10-10T20:24:22.925Z,12.98
2022-10-10T20:26:52.116Z,12.96
2022-10-10T20:29:21.449Z,12.95
2022-10-10T20:31:50.872Z,12.93
2022-10-10T20:34:20.084Z,12.87
2022-10-10T20:36:50.942Z,12.92
2022-10-10T20:39:20.138Z,12.91
2022-10-10T20:41:49.494Z,12.88
2022-10-10T20:44:18.904Z,12.83
2022-10-10T20:46:48.498Z,12.90
2022-10-10T20:49:20.878Z,12.97
2022-10-10T20:51:52.220Z,12.98
2022-10-10T20:54:24.619Z,12.97
2022-10-10T20:56:54.025Z,13.06
2022-10-10T20:59:24.667Z,13.05
2022-10-10T21:01:53.955Z,12.94
2022-10-10T21:04:23.165Z,13.03
2022-10-10T21:06:53.730Z,13.12
2022-10-10T21:09:22.934Z,13.09
2022-10-10T21:11:52.312Z,13.08
2022-10-10T21:14:21.650Z,13.05
2022-10-10T21:16:51.508Z,13.03
2022-10-10T21:19:20.814Z,13.05
2022-10-10T21:21:50.207Z,13.03
2022-10-10T21:24:20.784Z,13.01
2022-10-10T21:26:50.798Z,12.96
2022-10-10T21:29:19.980Z,12.93
2022-10-10T21:31:49.211Z,12.91
2022-10-10T21:34:19.160Z,12.87
2022-10-10T21:36:48.330Z,12.83
2022-10-10T21:39:17.519Z,12.80
2022-10-10T21:41:48.078Z,12.76
2022-10-10T21:44:17.274Z,12.74
2022-10-10T21:46:46.487Z,12.73
2022-10-10T21:49:15.830Z,12.66
2022-10-10T21:51:46.651Z,12.70
2022-10-10T21:54:16.206Z,12.70
2022-10-10T21:56:45.537Z,12.66
2022-10-10T21:59:16.532Z,12.65
2022-10-10T22:01:45.732Z,12.65
2022-10-10T22:04:15.278Z,12.72
2022-10-10T22:06:44.801Z,12.74
2022-10-10T22:09:14.003Z,12.75
2022-10-10T22:11:43.205Z,12.77
2022-10-10T22:14:12.333Z,12.78
2022-10-10T22:16:42.878Z,12.78
2022-10-10T22:19:12.148Z,12.80
2022-10-10T22:21:41.505Z,12.76
2022-10-10T22:24:10.835Z,12.74
2022-10-10T22:26:41.696Z,12.73
2022-10-10T22:29:10.852Z,12.63
2022-10-10T22:31:40.295Z,12.78
2022-10-10T22:34:11.089Z,12.80
2022-10-10T22:36:40.980Z,12.80
2022-10-10T22:39:11.198Z,12.80
2022-10-10T22:41:40.373Z,12.80
2022-10-10T22:44:10.482Z,12.81
2022-10-10T22:46:39.655Z,12.84
2022-10-10T22:49:10.171Z,12.84
2022-10-10T22:51:39.613Z,12.81
2022-10-10T22:54:08.721Z,12.79
2022-10-10T22:56:37.929Z,12.79
2022-10-10T22:59:07.069Z,12.79
2022-10-10T23:01:37.302Z,12.79
2022-10-10T23:04:10.336Z,12.78
2022-10-10T23:06:41.525Z,12.76
2022-10-10T23:09:13.252Z,12.82
2022-10-10T23:11:42.586Z,12.83
2022-10-10T23:14:11.924Z,12.86
2022-10-10T23:16:41.112Z,12.86
2022-10-10T23:19:10.269Z,12.87
2022-10-10T23:21:40.826Z,12.77
2022-10-10T23:24:10.065Z,12.78
2022-10-10T23:26:39.193Z,12.79
2022-10-10T23:29:09.967Z,12.77
2022-10-10T23:31:39.208Z,12.81
2022-10-10T23:34:08.410Z,12.82
2022-10-10T23:36:37.846Z,12.82
2022-10-10T23:39:10.049Z,12.83
2022-10-10T23:41:39.428Z,12.77
2022-10-10T23:44:08.623Z,12.78
2022-10-10T23:46:37.879Z,12.70
2022-10-10T23:49:07.050Z,12.87
2022-10-10T23:51:36.218Z,12.93
2022-10-10T23:54:05.577Z,12.95
2022-10-10T23:56:36.172Z,12.94
2022-10-10T23:59:05.466Z,12.99
